createdAt,value
2018-01-16T00:00:57.251Z,4.10
2018-01-16T00:03:24.744Z,4.10
2018-01-16T00:05:52.215Z,4.20
2018-01-16T00:08:20.450Z,4.40
2018-01-16T00:10:47.925Z,4.40
2018-01-16T00:13:15.412Z,4.40
2018-01-16T00:15:43.655Z,4.50
2018-01-16T00:18:11.128Z,4.50
2018-01-16T00:20:39.372Z,4.60
2018-01-16T00:23:06.856Z,4.60
2018-01-16T00:25:34.327Z,4.60
2018-01-16T00:28:02.572Z,4.60
2018-01-16T00:30:30.764Z,4.60
2018-01-16T00:32:58.256Z,4.70
2018-01-16T00:35:25.741Z,4.70
2018-01-16T00:40:47.289Z,4.70
2018-01-16T00:43:14.765Z,4.70
2018-01-16T00:45:42.251Z,4.70
2018-01-16T00:48:10.521Z,4.70
2018-01-16T00:50:38.751Z,4.70
2018-01-16T00:53:06.223Z,4.70
2018-01-16T00:55:34.623Z,4.70
2018-01-16T00:58:02.869Z,4.70
2018-01-16T01:00:30.350Z,4.70
2018-01-16T01:02:57.832Z,4.80
2018-01-16T01:05:26.068Z,4.80
2018-01-16T01:07:53.555Z,4.70
2018-01-16T01:10:21.787Z,4.70
2018-01-16T01:12:49.268Z,4.70
2018-01-16T01:15:16.742Z,4.70
2018-01-16T01:17:44.331Z,4.80
2018-01-16T01:20:11.792Z,4.80
2018-01-16T01:22:39.273Z,4.80
2018-01-16T01:25:06.749Z,4.70
2018-01-16T01:27:34.272Z,4.70
2018-01-16T01:30:01.753Z,4.70
2018-01-16T01:32:29.228Z,4.80
2018-01-16T01:34:56.708Z,4.70
2018-01-16T01:37:24.952Z,4.60
2018-01-16T01:39:52.436Z,4.60
2018-01-16T01:42:20.668Z,4.70
2018-01-16T01:44:48.153Z,4.70
2018-01-16T01:47:15.626Z,4.70
2018-01-16T01:49:43.239Z,4.70
2018-01-16T01:52:10.708Z,4.70
2018-01-16T01:54:38.179Z,4.70
2018-01-16T01:57:05.635Z,4.70
2018-01-16T01:59:33.134Z,4.70
2018-01-16T02:02:01.375Z,4.70
2018-01-16T02:04:28.851Z,4.60
2018-01-16T02:06:57.812Z,4.80
2018-01-16T02:09:25.287Z,4.80
2018-01-16T02:11:52.747Z,4.80
2018-01-16T02:14:20.215Z,4.70
2018-01-16T02:16:48.454Z,4.70
2018-01-16T02:19:15.971Z,4.70
2018-01-16T02:21:43.439Z,4.80
2018-01-16T02:24:10.908Z,4.80
2018-01-16T02:26:38.374Z,4.80
2018-01-16T02:29:05.861Z,4.90
2018-01-16T02:31:33.351Z,4.80
2018-01-16T02:34:01.588Z,4.80
2018-01-16T02:36:29.056Z,4.80
2018-01-16T02:38:56.532Z,4.80
2018-01-16T02:41:24.801Z,4.90
2018-01-16T02:43:52.276Z,4.80
2018-01-16T02:46:20.524Z,4.80
2018-01-16T02:48:47.983Z,4.80
2018-01-16T02:51:15.473Z,4.80
2018-01-16T02:53:43.711Z,4.70
2018-01-16T02:59:04.660Z,4.70
2018-01-16T03:01:32.905Z,4.70
2018-01-16T03:04:00.377Z,4.70
2018-01-16T03:06:27.869Z,4.70
2018-01-16T03:08:56.111Z,4.70
2018-01-16T03:11:24.237Z,4.70
2018-01-16T03:13:51.712Z,4.70
2018-01-16T03:16:19.182Z,4.70
2018-01-16T03:18:46.657Z,4.70
2018-01-16T03:21:14.168Z,4.70
2018-01-16T03:23:41.638Z,4.60
2018-01-16T03:26:09.129Z,4.70
2018-01-16T03:28:36.600Z,4.60
2018-01-16T03:31:04.840Z,4.70
2018-01-16T03:33:32.312Z,4.70
2018-01-16T03:35:59.792Z,4.70
2018-01-16T03:38:27.282Z,4.70
2018-01-16T03:40:54.748Z,4.80
2018-01-16T03:43:22.227Z,4.70
2018-01-16T03:45:50.634Z,4.70
2018-01-16T03:48:18.133Z,4.70
2018-01-16T03:50:45.654Z,4.60
2018-01-16T03:53:13.119Z,4.60
2018-01-16T03:55:41.391Z,4.70
2018-01-16T03:58:08.891Z,4.70
2018-01-16T04:00:36.353Z,4.70
2018-01-16T04:03:04.494Z,4.70
2018-01-16T04:05:32.762Z,4.70
2018-01-16T04:08:01.000Z,4.80
2018-01-16T04:10:28.488Z,4.80
2018-01-16T04:12:55.948Z,4.70
2018-01-16T04:15:24.236Z,4.70
2018-01-16T04:17:51.899Z,4.70
2018-01-16T04:20:20.134Z,4.70
2018-01-16T04:22:47.618Z,4.70
2018-01-16T04:25:15.789Z,4.70
2018-01-16T04:27:43.284Z,4.70
2018-01-16T04:30:10.753Z,4.70
2018-01-16T04:32:38.227Z,4.70
2018-01-16T04:35:05.792Z,4.70
2018-01-16T04:37:33.271Z,4.80
2018-01-16T04:40:02.464Z,4.80
2018-01-16T04:42:29.940Z,4.80
2018-01-16T04:44:58.178Z,4.90
2018-01-16T04:47:25.666Z,4.90
2018-01-16T04:49:53.148Z,4.90
2018-01-16T04:52:21.415Z,4.90
2018-01-16T04:54:50.805Z,4.90
2018-01-16T04:57:19.061Z,4.80
2018-01-16T04:59:46.524Z,4.80
2018-01-16T05:02:14.008Z,4.80
2018-01-16T05:04:42.252Z,4.80
2018-01-16T05:07:09.736Z,4.80
2018-01-16T05:09:37.959Z,4.80
2018-01-16T05:12:05.454Z,4.80
2018-01-16T05:14:34.423Z,4.80
2018-01-16T05:17:01.911Z,4.80
2018-01-16T05:19:29.376Z,4.80
2018-01-16T05:21:57.612Z,4.80
2018-01-16T05:24:25.082Z,4.80
2018-01-16T05:26:52.559Z,4.80
2018-01-16T05:29:20.023Z,4.80
2018-01-16T05:31:48.265Z,4.80
2018-01-16T05:34:15.754Z,4.80
2018-01-16T05:36:43.246Z,4.80
2018-01-16T05:39:10.773Z,4.90
2018-01-16T05:41:38.240Z,4.90
2018-01-16T05:44:06.519Z,4.90
2018-01-16T05:46:34.760Z,4.90
2018-01-16T05:49:02.343Z,4.90
2018-01-16T05:51:29.807Z,4.90
2018-01-16T05:53:58.235Z,4.90
2018-01-16T05:56:26.572Z,4.90
2018-01-16T05:58:54.814Z,4.90
2018-01-16T06:01:22.411Z,4.90
2018-01-16T06:03:50.643Z,5.00
2018-01-16T06:06:18.110Z,5.00
2018-01-16T06:08:45.601Z,5.00
2018-01-16T06:11:14.674Z,5.00
2018-01-16T06:13:42.148Z,5.00
2018-01-16T06:16:10.403Z,5.00
2018-01-16T06:18:37.888Z,5.00
2018-01-16T06:21:06.203Z,5.00
2018-01-16T06:23:33.692Z,5.10
2018-01-16T06:26:02.656Z,5.10
2018-01-16T06:28:30.149Z,5.10
2018-01-16T06:30:59.132Z,5.10
2018-01-16T06:33:26.606Z,5.10
2018-01-16T06:35:54.849Z,5.10
2018-01-16T06:38:22.321Z,5.10
2018-01-16T06:40:49.788Z,5.20
2018-01-16T06:43:17.364Z,5.20
2018-01-16T06:45:45.604Z,5.30
2018-01-16T06:48:13.075Z,5.30
2018-01-16T06:50:40.557Z,5.20
2018-01-16T06:53:08.798Z,5.30
2018-01-16T06:55:36.291Z,5.30
2018-01-16T06:58:05.678Z,5.30
2018-01-16T07:00:33.164Z,5.30
2018-01-16T07:03:01.397Z,5.30
2018-01-16T07:05:29.175Z,5.30
2018-01-16T07:07:57.423Z,5.30
2018-01-16T07:10:25.027Z,5.30
2018-01-16T07:12:53.308Z,5.20
2018-01-16T07:15:21.561Z,5.30
2018-01-16T07:17:53.088Z,5.30
2018-01-16T07:20:20.586Z,5.30
2018-01-16T07:22:49.297Z,5.30
2018-01-16T07:25:16.776Z,5.30
2018-01-16T07:27:44.260Z,5.40
2018-01-16T07:30:11.744Z,5.40
2018-01-16T07:32:39.975Z,5.30
2018-01-16T07:35:07.463Z,5.30
2018-01-16T07:37:34.924Z,5.40
2018-01-16T07:40:02.395Z,5.40
2018-01-16T07:42:30.641Z,5.30
2018-01-16T07:44:58.129Z,5.30
2018-01-16T07:47:26.361Z,5.30
2018-01-16T07:49:53.840Z,5.30
2018-01-16T07:52:21.292Z,5.30
2018-01-16T07:54:48.772Z,5.20
2018-01-16T07:57:17.014Z,5.20
2018-01-16T07:59:44.484Z,5.20
2018-01-16T08:02:12.710Z,5.10
2018-01-16T08:04:40.192Z,5.10
2018-01-16T08:07:07.696Z,5.10
2018-01-16T08:09:35.147Z,5.10
2018-01-16T08:12:02.624Z,5.10
2018-01-16T08:14:30.859Z,5.00
2018-01-16T08:16:59.344Z,5.00
2018-01-16T08:19:26.815Z,5.00
2018-01-16T08:21:54.296Z,5.10
2018-01-16T08:24:22.547Z,5.10
2018-01-16T08:26:50.020Z,5.10
2018-01-16T08:29:18.242Z,5.10
2018-01-16T08:31:45.725Z,5.10
2018-01-16T08:34:13.201Z,5.10
2018-01-16T08:39:34.275Z,5.10
2018-01-16T08:42:01.763Z,5.10
2018-01-16T08:44:29.216Z,5.10
2018-01-16T08:46:56.701Z,5.10
2018-01-16T08:49:25.599Z,5.20
2018-01-16T08:51:53.848Z,5.20
2018-01-16T08:54:21.316Z,5.20
2018-01-16T08:56:48.797Z,5.20
2018-01-16T08:59:17.044Z,5.20
2018-01-16T09:01:44.535Z,5.20
2018-01-16T09:04:12.770Z,5.20
2018-01-16T09:06:40.258Z,5.20
2018-01-16T09:09:08.507Z,5.20
2018-01-16T09:11:36.005Z,5.20
2018-01-16T09:14:04.237Z,5.30
2018-01-16T09:16:31.732Z,5.30
2018-01-16T09:18:59.969Z,5.30
2018-01-16T09:21:27.448Z,5.30
2018-01-16T09:24:03.328Z,5.40
2018-01-16T09:26:31.584Z,5.40
2018-01-16T09:28:59.811Z,5.30
2018-01-16T09:31:27.287Z,5.30
2018-01-16T09:33:54.764Z,5.40
2018-01-16T09:36:22.253Z,5.40
2018-01-16T09:38:50.496Z,5.50
2018-01-16T09:41:17.958Z,5.50
2018-01-16T09:43:45.857Z,5.50
2018-01-16T09:46:13.309Z,5.50
2018-01-16T09:48:41.539Z,5.60
2018-01-16T09:51:09.007Z,5.50
2018-01-16T09:53:36.487Z,5.60
2018-01-16T09:56:04.730Z,5.80
2018-01-16T09:58:32.208Z,5.70
2018-01-16T10:01:03.418Z,5.80
2018-01-16T10:03:30.897Z,5.80
2018-01-16T10:05:58.361Z,5.80
2018-01-16T10:08:26.607Z,5.70
2018-01-16T10:11:01.597Z,5.70
2018-01-16T10:13:29.843Z,5.70
2018-01-16T10:15:59.024Z,5.70
2018-01-16T10:18:26.511Z,5.70
2018-01-16T10:20:53.982Z,5.80
2018-01-16T10:23:22.224Z,5.80
2018-01-16T10:25:49.756Z,5.80
2018-01-16T10:28:17.292Z,5.80
2018-01-16T10:33:38.687Z,5.70
2018-01-16T10:39:03.806Z,5.70
2018-01-16T10:41:31.271Z,5.70
2018-01-16T10:43:58.749Z,5.70
2018-01-16T10:46:26.967Z,5.60
2018-01-16T10:48:54.486Z,5.60
2018-01-16T10:51:22.730Z,5.60
2018-01-16T10:53:50.197Z,5.60
2018-01-16T10:56:17.663Z,5.60
2018-01-16T10:58:45.908Z,5.70
2018-01-16T11:01:13.403Z,5.70
2018-01-16T11:03:41.643Z,5.70
2018-01-16T11:06:09.104Z,5.70
2018-01-16T11:11:30.173Z,5.70
2018-01-16T11:13:58.447Z,5.60
2018-01-16T11:16:26.729Z,5.60
2018-01-16T11:24:42.725Z,5.60
2018-01-16T11:27:10.229Z,5.60
2018-01-16T11:29:39.101Z,5.60
2018-01-16T11:32:11.016Z,5.50
2018-01-16T11:34:38.516Z,5.50
2018-01-16T11:37:06.752Z,5.60
2018-01-16T11:39:34.240Z,5.50
2018-01-16T11:42:01.712Z,5.50
2018-01-16T11:47:23.228Z,5.50
2018-01-16T11:49:50.714Z,5.50
2018-01-16T11:52:18.951Z,5.50
2018-01-16T11:54:47.970Z,5.50
2018-01-16T11:57:16.196Z,5.50
2018-01-16T11:59:43.711Z,5.60
2018-01-16T12:05:04.302Z,5.50
2018-01-16T12:07:31.781Z,5.60
2018-01-16T12:10:00.014Z,5.60
2018-01-16T12:15:20.534Z,5.60
2018-01-16T12:17:48.005Z,5.50
2018-01-16T12:20:16.424Z,5.50
2018-01-16T12:22:45.343Z,5.50
2018-01-16T12:25:13.466Z,5.50
2018-01-16T12:27:41.722Z,5.50
2018-01-16T12:30:09.220Z,5.50
2018-01-16T12:32:37.452Z,5.20
2018-01-16T12:35:04.999Z,5.10
2018-01-16T12:37:32.467Z,5.00
2018-01-16T12:39:59.948Z,4.80
2018-01-16T12:42:29.683Z,4.70
2018-01-16T12:44:57.167Z,4.70
2018-01-16T12:47:25.415Z,4.60
2018-01-16T12:49:52.897Z,4.60
2018-01-16T12:52:20.380Z,4.50
2018-01-16T12:54:47.879Z,4.50
2018-01-16T12:57:16.145Z,4.60
2018-01-16T12:59:50.251Z,4.50
2018-01-16T13:02:17.736Z,4.50
2018-01-16T13:04:45.257Z,4.50
2018-01-16T13:07:12.744Z,4.60
2018-01-16T13:12:33.723Z,4.60
2018-01-16T13:15:01.211Z,4.50
2018-01-16T13:17:29.455Z,4.50
2018-01-16T13:19:56.917Z,4.50
2018-01-16T13:22:26.903Z,4.50
2018-01-16T13:24:54.431Z,4.60
2018-01-16T13:27:22.671Z,4.70
2018-01-16T13:29:50.157Z,4.70
2018-01-16T13:32:18.401Z,4.90
2018-01-16T13:34:45.870Z,4.90
2018-01-16T13:37:13.345Z,5.00
2018-01-16T13:39:41.581Z,5.00
2018-01-16T13:42:09.216Z,5.00
2018-01-16T13:44:36.699Z,5.00
2018-01-16T13:47:04.180Z,5.10
2018-01-16T13:49:31.647Z,5.10
2018-01-16T13:51:59.121Z,5.10
2018-01-16T13:54:28.236Z,5.20
2018-01-16T13:56:55.710Z,5.20
2018-01-16T13:59:23.182Z,5.20
2018-01-16T14:01:50.672Z,5.20
2018-01-16T14:04:18.139Z,5.20
2018-01-16T14:06:46.394Z,5.10
2018-01-16T14:09:13.863Z,5.10
2018-01-16T14:11:41.362Z,5.10
2018-01-16T14:14:10.584Z,5.10
2018-01-16T14:16:38.058Z,5.00
2018-01-16T14:19:12.935Z,5.00
2018-01-16T14:21:41.188Z,4.90
2018-01-16T14:24:08.648Z,4.90
2018-01-16T14:26:36.891Z,4.80
2018-01-16T14:29:04.369Z,4.80
2018-01-16T14:31:31.837Z,4.80
2018-01-16T14:34:00.093Z,4.70
2018-01-16T14:36:28.491Z,4.70
2018-01-16T14:38:57.023Z,4.50
2018-01-16T14:41:24.482Z,4.50
2018-01-16T14:43:53.465Z,4.50
2018-01-16T14:46:21.665Z,4.40
2018-01-16T14:48:49.135Z,4.40
2018-01-16T14:51:16.653Z,4.30
2018-01-16T14:53:44.132Z,4.30
2018-01-16T14:56:11.588Z,4.40
2018-01-16T14:58:39.064Z,4.40
2018-01-16T15:01:06.514Z,4.30
2018-01-16T15:03:33.994Z,4.30
2018-01-16T15:06:02.984Z,4.20
2018-01-16T15:08:30.449Z,4.20
2018-01-16T15:10:57.916Z,4.10
2018-01-16T15:13:26.156Z,4.00
2018-01-16T15:15:53.623Z,4.00
2018-01-16T15:18:21.137Z,4.00
2018-01-16T15:20:48.739Z,4.00
2018-01-16T15:23:16.212Z,4.00
2018-01-16T15:25:43.675Z,4.00
2018-01-16T15:28:11.147Z,4.00
2018-01-16T15:30:39.383Z,4.00
2018-01-16T15:33:06.853Z,4.00
2018-01-16T15:35:35.084Z,4.10
2018-01-16T15:38:02.581Z,4.00
2018-01-16T15:40:30.482Z,4.10
2018-01-16T15:42:58.708Z,4.10
2018-01-16T15:45:26.944Z,4.00
2018-01-16T15:47:55.180Z,4.10
2018-01-16T15:50:22.662Z,4.00
2018-01-16T15:52:50.904Z,4.00
2018-01-16T15:55:18.386Z,4.00
2018-01-16T15:57:45.870Z,4.00
2018-01-16T16:00:13.367Z,4.00
2018-01-16T16:02:40.826Z,4.00
2018-01-16T16:05:08.315Z,4.00
2018-01-16T16:07:35.787Z,4.00
2018-01-16T16:10:04.181Z,4.00
2018-01-16T16:12:31.665Z,4.00
2018-01-16T16:14:59.166Z,4.00
2018-01-16T16:17:26.628Z,4.00
2018-01-16T16:19:54.873Z,4.00
2018-01-16T16:22:22.332Z,4.00
2018-01-16T16:24:49.812Z,4.10
2018-01-16T16:27:18.059Z,4.10
2018-01-16T16:29:45.559Z,4.10
2018-01-16T16:32:13.797Z,4.10
2018-01-16T16:34:41.272Z,4.00
2018-01-16T16:37:08.741Z,4.10
2018-01-16T16:39:36.217Z,4.10
2018-01-16T16:42:04.450Z,4.20
2018-01-16T16:44:31.933Z,4.20
2018-01-16T16:46:59.397Z,4.20
2018-01-16T16:49:27.670Z,4.20
2018-01-16T16:51:55.135Z,4.20
2018-01-16T16:54:24.314Z,4.20
2018-01-16T16:56:51.772Z,4.20
2018-01-16T16:59:19.341Z,4.20
2018-01-16T17:01:47.583Z,4.20
2018-01-16T17:04:15.060Z,4.20
2018-01-16T17:06:42.538Z,4.20
2018-01-16T17:09:10.777Z,4.30
2018-01-16T17:11:38.270Z,4.20
2018-01-16T17:14:07.232Z,4.30
2018-01-16T17:16:34.721Z,4.30
2018-01-16T17:19:02.980Z,4.30
2018-01-16T17:21:30.462Z,4.30
2018-01-16T17:23:58.704Z,4.30
2018-01-16T17:26:26.172Z,4.30
2018-01-16T17:28:54.404Z,4.40
2018-01-16T17:31:21.883Z,4.30
2018-01-16T17:33:49.344Z,4.30
2018-01-16T17:36:16.855Z,4.30
2018-01-16T17:38:44.401Z,4.20
2018-01-16T17:41:12.635Z,4.10
2018-01-16T17:43:40.103Z,4.10
2018-01-16T17:46:07.574Z,4.00
2018-01-16T17:48:35.043Z,4.00
2018-01-16T17:51:03.288Z,3.90
2018-01-16T17:53:30.803Z,3.90
2018-01-16T17:55:58.280Z,3.90
2018-01-16T17:58:25.792Z,3.80
2018-01-16T18:00:53.268Z,3.80
2018-01-16T18:03:21.504Z,3.80
2018-01-16T18:05:49.113Z,3.80
2018-01-16T18:08:16.568Z,3.70
2018-01-16T18:10:44.069Z,3.80
2018-01-16T18:13:11.552Z,3.90
2018-01-16T18:15:39.010Z,3.90
2018-01-16T18:18:06.508Z,3.90
2018-01-16T18:20:33.968Z,3.90
2018-01-16T18:23:01.448Z,3.90
2018-01-16T18:25:30.104Z,3.80
2018-01-16T18:27:57.595Z,3.70
2018-01-16T18:30:25.072Z,3.70
2018-01-16T18:32:52.553Z,3.70
2018-01-16T18:35:21.133Z,3.70
2018-01-16T18:37:49.388Z,3.70
2018-01-16T18:40:16.864Z,3.60
2018-01-16T18:42:45.117Z,3.60
2018-01-16T18:45:12.605Z,3.60
2018-01-16T18:47:40.863Z,3.60
2018-01-16T18:50:08.342Z,3.60
2018-01-16T18:52:36.614Z,3.60
2018-01-16T18:55:04.852Z,3.60
2018-01-16T18:57:32.329Z,3.60
2018-01-16T18:59:59.792Z,3.60
2018-01-16T19:02:27.380Z,3.40
2018-01-16T19:04:54.865Z,3.40
2018-01-16T19:07:22.367Z,3.40
2018-01-16T19:09:49.847Z,3.50
2018-01-16T19:12:18.143Z,3.50
2018-01-16T19:14:45.612Z,3.50
2018-01-16T19:17:13.145Z,3.50
2018-01-16T19:19:41.413Z,3.40
2018-01-16T19:22:09.643Z,3.50
2018-01-16T19:24:37.167Z,3.40
2018-01-16T19:27:04.637Z,3.50
2018-01-16T19:29:32.118Z,3.50
2018-01-16T19:31:59.604Z,3.50
2018-01-16T19:34:27.082Z,3.50
2018-01-16T19:36:55.358Z,3.50
2018-01-16T19:39:23.602Z,3.50
2018-01-16T19:41:51.069Z,3.50
2018-01-16T19:44:18.543Z,3.50
2018-01-16T19:46:46.777Z,3.50
2018-01-16T19:49:14.240Z,3.40
2018-01-16T19:51:41.754Z,3.50
2018-01-16T19:54:09.220Z,3.50
2018-01-16T19:56:36.703Z,3.50
2018-01-16T19:59:04.194Z,3.50
2018-01-16T20:01:32.487Z,3.60
2018-01-16T20:04:00.787Z,3.60
2018-01-16T20:06:28.243Z,3.60
2018-01-16T20:08:56.685Z,3.60
2018-01-16T20:11:24.159Z,3.60
2018-01-16T20:13:52.383Z,3.50
2018-01-16T20:16:19.877Z,3.50
2018-01-16T20:18:48.174Z,3.60
2018-01-16T20:21:16.403Z,3.60
2018-01-16T20:23:43.904Z,3.60
2018-01-16T20:26:12.132Z,3.60
2018-01-16T20:28:39.659Z,3.60
2018-01-16T20:31:07.120Z,3.60
2018-01-16T20:33:34.599Z,3.50
2018-01-16T20:36:02.061Z,3.50
2018-01-16T20:38:29.647Z,3.50
2018-01-16T20:40:57.108Z,3.40
2018-01-16T20:43:24.588Z,3.30
2018-01-16T20:45:52.815Z,3.20
2018-01-16T20:48:20.336Z,3.20
2018-01-16T20:50:47.866Z,3.10
2018-01-16T20:53:16.149Z,3.00
2018-01-16T20:55:44.387Z,3.10
2018-01-16T20:58:11.902Z,3.10
2018-01-16T21:00:39.434Z,3.10
2018-01-16T21:03:06.968Z,2.90
2018-01-16T21:05:34.447Z,2.90
2018-01-16T21:08:01.923Z,2.90
2018-01-16T21:10:30.235Z,2.90
2018-01-16T21:12:57.718Z,2.90
2018-01-16T21:15:25.183Z,2.90
2018-01-16T21:17:52.653Z,2.90
2018-01-16T21:20:20.112Z,3.10
2018-01-16T21:22:47.595Z,3.10
2018-01-16T21:25:15.092Z,3.10
2018-01-16T21:27:42.601Z,3.20
2018-01-16T21:30:10.883Z,3.20
2018-01-16T21:32:39.184Z,3.20
2018-01-16T21:35:06.804Z,3.10
2018-01-16T21:37:35.047Z,3.20
2018-01-16T21:40:03.429Z,3.30
2018-01-16T21:42:30.946Z,3.20
2018-01-16T21:44:58.473Z,3.30
2018-01-16T21:47:25.943Z,3.30
2018-01-16T21:49:54.230Z,3.30
2018-01-16T21:52:21.729Z,3.30
2018-01-16T21:54:49.203Z,3.40
2018-01-16T21:57:16.665Z,3.30
2018-01-16T21:59:44.216Z,3.40
2018-01-16T22:02:12.476Z,3.40
2018-01-16T22:04:39.992Z,3.40
2018-01-16T22:07:08.265Z,3.30
2018-01-16T22:09:36.546Z,3.30
2018-01-16T22:12:04.801Z,3.20
2018-01-16T22:14:32.307Z,3.30
2018-01-16T22:16:59.889Z,3.30
2018-01-16T22:19:27.386Z,3.30
2018-01-16T22:21:55.636Z,3.20
2018-01-16T22:24:23.150Z,3.30
2018-01-16T22:26:51.398Z,3.30
2018-01-16T22:29:19.630Z,3.30
2018-01-16T22:31:47.164Z,3.30
2018-01-16T22:34:14.660Z,3.30
2018-01-16T22:36:42.129Z,3.40
2018-01-16T22:39:09.688Z,3.40
2018-01-16T22:41:37.176Z,3.40
2018-01-16T22:44:05.420Z,3.50
2018-01-16T22:46:32.896Z,3.50
2018-01-16T22:49:01.130Z,3.50
2018-01-16T22:51:28.629Z,3.50
2018-01-16T22:53:56.883Z,3.50
2018-01-16T22:56:24.351Z,3.50
2018-01-16T22:58:51.828Z,3.50
2018-01-16T23:01:19.311Z,3.40
2018-01-16T23:03:46.832Z,3.40
2018-01-16T23:06:14.285Z,3.40
2018-01-16T23:08:41.748Z,3.50
2018-01-16T23:11:09.225Z,3.40
2018-01-16T23:13:36.701Z,3.50
2018-01-16T23:16:04.162Z,3.50
2018-01-16T23:18:32.485Z,3.40
2018-01-16T23:20:59.949Z,3.50
2018-01-16T23:23:27.427Z,3.40
2018-01-16T23:25:55.677Z,3.50
2018-01-16T23:28:23.163Z,3.50
2018-01-16T23:30:50.742Z,3.50
2018-01-16T23:33:18.220Z,3.50
2018-01-16T23:35:45.674Z,3.40
2018-01-16T23:38:13.148Z,3.50
2018-01-16T23:40:40.606Z,3.50
2018-01-16T23:43:08.091Z,3.40
2018-01-16T23:45:35.539Z,3.40
2018-01-16T23:48:16.001Z,3.50
2018-01-16T23:50:43.459Z,3.40
2018-01-16T23:53:10.944Z,3.40
2018-01-16T23:55:38.417Z,3.40
2018-01-16T23:58:05.902Z,3.30
